Cedar Lake, Michigan
Current Conditions -  °F | °C
As of 9:35 AM on Friday 24 Oct 2014 (Local Time) from KAMN Reporting Station
Haze Haze  
Wind Chill: 46°   Ceiling: 2700
Heat Index: 46°   Visibility: 5mi
Dew Point: 42°   Wind: 3mph
Humidity: 85%   Direction: 200°SSW
Pressure: 30.06"   Gusts: NA
Location:  43.41°N, 84.97°W
Report Text: KAMN 241335Z AUTO 20003KT 5SM BR BKN027 BKN034 OVC060 08/06 A3006 RMK AO2 T00800056
Loading
Personal Weather Stations






























Interactive Weather Map
Tropical Storm Tracking
New forecast layout! Learn more

10-Day Weather Forecast

Advertisements
Track Severe Weather on mobile